Time;durP1;ratioP1;P1;durP2;ratioP2;P2;SDS_P1;SDS_P2;PMS_P1;PMS_P2;Temp;Humidity;BMP_temperature;BMP_pressure;BME280_temperature;BME280_humidity;BME280_pressure;Samples;Min_cycle;Max_cycle;Signal;HPM_P1;HPM_P2
2023/09/27 00:01:47;;;;;;;;;14.50;13.75;;;;;21.91;45.03;101417.69;5020062;28;50831;-66
2023/09/27 00:04:13;;;;;;;;;12.75;11.00;;;;;21.91;44.70;101424.81;5019661;28;50669;-66
2023/09/27 00:06:38;;;;;;;;;13.75;12.50;;;;;21.88;44.53;101416.97;5037176;28;45436;-66
2023/09/27 00:09:04;;;;;;;;;12.00;11.25;;;;;21.86;45.01;101424.19;5039694;28;49424;-66
2023/09/27 00:11:29;;;;;;;;;14.00;12.25;;;;;21.83;44.96;101432.38;5038821;28;45274;-66
2023/09/27 00:13:55;;;;;;;;;10.75;10.75;;;;;21.84;44.97;101431.44;5039929;28;45241;-66
2023/09/27 00:16:20;;;;;;;;;16.50;10.25;;;;;21.80;45.00;101425.38;5039541;28;46591;-66
2023/09/27 00:18:45;;;;;;;;;13.25;10.75;;;;;21.81;44.59;101431.59;5039633;28;49677;-66
2023/09/27 00:21:11;;;;;;;;;14.00;12.50;;;;;21.77;44.58;101422.84;5040053;28;45713;-66
2023/09/27 00:23:36;;;;;;;;;14.25;14.00;;;;;21.75;45.23;101428.28;5039803;28;45295;-66
2023/09/27 00:26:01;;;;;;;;;11.50;10.75;;;;;21.72;44.87;101424.91;5039456;28;47250;-66
2023/09/27 00:28:27;;;;;;;;;12.75;10.75;;;;;21.72;45.09;101427.56;5039718;28;45290;-66
2023/09/27 00:30:52;;;;;;;;;9.75;8.50;;;;;21.70;45.12;101435.69;5039848;28;45397;-66
2023/09/27 00:33:17;;;;;;;;;12.75;9.00;;;;;21.66;45.31;101431.44;5039365;28;48337;-66
2023/09/27 00:35:50;;;;;;;;;13.50;10.75;;;;;21.67;45.37;101424.25;5021652;28;46278;-66
2023/09/27 00:38:15;;;;;;;;;13.00;12.00;;;;;21.65;44.97;101423.50;5039693;28;45254;-66
2023/09/27 00:40:46;;;;;;;;;13.25;10.25;;;;;21.63;45.48;101420.03;5039762;28;45443;-66
2023/09/27 00:43:30;;;;;;;;;7.75;7.75;;;;;21.55;45.44;101413.25;5039552;28;45444;-66
2023/09/27 00:46:04;;;;;;;;;10.25;9.00;;;;;21.58;45.16;101429.16;5039214;28;45463;-66
2023/09/27 00:48:31;;;;;;;;;12.50;10.50;;;;;21.55;45.32;101421.25;5039312;28;45368;-66
2023/09/27 00:50:57;;;;;;;;;11.75;11.75;;;;;21.54;45.02;101418.63;5039387;28;45424;-66
2023/09/27 00:53:25;;;;;;;;;13.75;11.00;;;;;21.50;45.54;101409.91;5034648;28;45187;-66
2023/09/27 00:55:51;;;;;;;;;12.50;11.00;;;;;21.53;45.23;101409.72;5019000;28;46385;-66
2023/09/27 00:58:19;;;;;;;;;8.75;8.25;;;;;21.51;45.18;101405.41;5025091;28;45160;-66
2023/09/27 01:00:48;;;;;;;;;16.00;11.50;;;;;21.51;45.13;101413.44;5037927;28;45334;-66
2023/09/27 01:03:13;;;;;;;;;10.25;9.50;;;;;21.49;45.64;101405.50;5019577;28;45326;-66
2023/09/27 01:05:40;;;;;;;;;11.25;10.00;;;;;21.49;45.69;101407.31;5028067;28;46847;-66
2023/09/27 01:08:06;;;;;;;;;11.25;10.25;;;;;21.48;45.19;101409.09;5039372;28;45280;-66
2023/09/27 01:10:32;;;;;;;;;13.50;11.25;;;;;21.48;45.56;101413.59;5038878;28;45491;-66
2023/09/27 01:12:57;;;;;;;;;14.75;10.50;;;;;21.48;45.61;101403.75;5039216;28;45202;-66
2023/09/27 01:15:23;;;;;;;;;9.00;9.00;;;;;21.47;45.52;101395.81;5038963;28;45531;-66
2023/09/27 01:17:52;;;;;;;;;15.50;12.50;;;;;21.47;45.81;101398.50;5039102;28;45319;-66
2023/09/27 01:20:17;;;;;;;;;11.75;9.25;;;;;21.46;45.07;101402.09;5039165;28;45338;-66
2023/09/27 01:22:43;;;;;;;;;13.50;10.50;;;;;21.44;45.66;101402.19;5039341;28;50240;-66
2023/09/27 01:25:14;;;;;;;;;7.75;6.50;;;;;21.40;45.25;101398.78;5042098;28;46157;-66
2023/09/27 01:27:40;;;;;;;;;11.25;10.75;;;;;21.36;45.71;101391.88;5042440;28;45294;-66
2023/09/27 01:30:07;;;;;;;;;10.00;7.75;;;;;21.37;45.43;101393.59;5042061;28;45442;-66
2023/09/27 01:32:32;;;;;;;;;11.00;11.00;;;;;21.38;45.72;101403.38;5042390;28;45420;-65
2023/09/27 01:34:57;;;;;;;;;10.00;9.00;;;;;21.35;45.36;101408.84;5041918;28;45426;-65
2023/09/27 01:37:22;;;;;;;;;11.75;10.50;;;;;21.33;45.68;101404.50;5024293;28;45354;-66
2023/09/27 01:39:48;;;;;;;;;12.25;10.50;;;;;21.32;45.31;101411.69;5042417;28;45408;-65
2023/09/27 01:42:13;;;;;;;;;14.25;10.50;;;;;21.24;45.57;101400.47;5042133;28;45312;-66
2023/09/27 01:44:38;;;;;;;;;10.50;9.50;;;;;21.26;45.49;101407.50;5041829;28;45396;-65
2023/09/27 01:47:04;;;;;;;;;10.75;9.75;;;;;21.25;45.66;101412.91;5023654;28;47166;-66
2023/09/27 01:49:29;;;;;;;;;11.00;10.00;;;;;21.24;45.61;101411.19;5042112;28;45314;-65
2023/09/27 01:51:54;;;;;;;;;11.00;10.00;;;;;21.23;45.48;101398.75;5042052;28;45242;-65
2023/09/27 01:54:20;;;;;;;;;15.00;11.75;;;;;21.21;46.03;101387.28;5011189;28;47096;-65
2023/09/27 01:56:45;;;;;;;;;10.25;9.00;;;;;21.18;45.86;101382.06;5020586;28;45234;-65
2023/09/27 01:59:10;;;;;;;;;10.50;9.75;;;;;21.17;46.01;101389.25;5034920;28;46509;-66
2023/09/27 02:01:36;;;;;;;;;13.25;12.50;;;;;21.14;46.08;101392.03;5032924;28;45171;-65
2023/09/27 02:04:01;;;;;;;;;12.50;9.75;;;;;21.12;45.51;101404.63;5003827;28;46970;-65
2023/09/27 02:06:26;;;;;;;;;9.00;9.00;;;;;21.11;45.79;101398.41;5036571;28;46583;-65
2023/09/27 02:08:52;;;;;;;;;10.75;10.50;;;;;21.10;45.83;101414.53;5041642;28;45174;-65
2023/09/27 02:11:19;;;;;;;;;13.00;11.75;;;;;21.06;45.77;101408.44;5041426;28;54325;-65
2023/09/27 02:13:44;;;;;;;;;14.00;12.50;;;;;21.08;45.60;101406.59;5041486;28;47080;-65
2023/09/27 02:16:09;;;;;;;;;12.00;9.50;;;;;21.03;46.33;101400.59;5041303;28;45402;-65
2023/09/27 02:18:35;;;;;;;;;13.25;10.25;;;;;21.04;45.77;101404.13;5041850;28;45340;-66
2023/09/27 02:21:01;;;;;;;;;9.75;9.75;;;;;21.01;46.06;101404.28;5041378;28;51579;-65
2023/09/27 02:23:28;;;;;;;;;11.00;11.00;;;;;20.96;45.77;101399.16;5040883;28;45332;-65
2023/09/27 02:25:57;;;;;;;;;11.00;8.00;;;;;20.99;45.80;101412.34;5041318;28;45378;-65
2023/09/27 02:28:23;;;;;;;;;14.75;12.25;;;;;20.98;45.99;101415.97;5041588;28;45311;-65
2023/09/27 02:30:49;;;;;;;;;12.75;10.75;;;;;20.96;46.26;101404.50;5041263;28;45777;-65
2023/09/27 02:33:14;;;;;;;;;12.00;11.00;;;;;20.87;45.89;101387.09;5040744;28;45411;-65
2023/09/27 02:35:39;;;;;;;;;10.00;9.50;;;;;20.94;46.35;101398.34;5040402;28;45323;-65
2023/09/27 02:38:05;;;;;;;;;11.50;9.00;;;;;20.91;46.05;101393.16;5041279;28;46072;-65
2023/09/27 02:40:30;;;;;;;;;15.00;13.25;;;;;20.90;45.92;101383.41;5040940;28;51349;-65
2023/09/27 02:42:55;;;;;;;;;11.50;11.50;;;;;20.89;45.95;101377.22;5041228;28;45397;-65
2023/09/27 02:45:20;;;;;;;;;12.25;11.25;;;;;20.86;46.49;101384.50;5041055;28;45583;-65
2023/09/27 02:47:47;;;;;;;;;14.50;13.25;;;;;20.78;45.99;101374.19;5023367;28;45410;-65
2023/09/27 02:50:13;;;;;;;;;12.50;12.50;;;;;20.83;46.48;101387.31;5041143;28;45368;-65
2023/09/27 02:52:39;;;;;;;;;13.75;11.50;;;;;20.77;46.10;101388.47;5040978;28;45370;-65
2023/09/27 02:55:05;;;;;;;;;10.75;10.75;;;;;20.77;46.06;101391.16;5021669;28;45446;-66
2023/09/27 02:57:30;;;;;;;;;15.75;12.00;;;;;20.77;46.10;101394.66;5021276;28;45318;-65
2023/09/27 02:59:56;;;;;;;;;12.00;12.00;;;;;20.73;46.63;101384.22;5040251;28;45519;-66
2023/09/27 03:02:21;;;;;;;;;14.50;11.50;;;;;20.75;46.63;101387.66;5027248;28;52597;-65
2023/09/27 03:04:47;;;;;;;;;13.25;11.50;;;;;20.70;46.60;101395.84;5023433;28;45199;-65
2023/09/27 03:07:14;;;;;;;;;11.75;10.00;;;;;20.72;46.20;101404.69;5040994;28;45278;-65
2023/09/27 03:09:39;;;;;;;;;10.75;9.75;;;;;20.70;46.59;101401.19;5040815;28;45440;-65
2023/09/27 03:12:06;;;;;;;;;10.00;9.50;;;;;20.70;46.58;101401.19;5040172;28;55268;-65
2023/09/27 03:14:32;;;;;;;;;10.25;9.00;;;;;20.65;46.82;101392.53;5040671;28;45328;-65
2023/09/27 03:16:57;;;;;;;;;11.50;10.00;;;;;20.65;46.70;101389.00;5040671;28;45324;-65
2023/09/27 03:19:23;;;;;;;;;14.00;12.75;;;;;20.62;46.90;101390.00;5040719;28;45414;-65
2023/09/27 03:21:48;;;;;;;;;11.00;11.00;;;;;20.62;46.41;101388.19;5040621;28;45292;-65
2023/09/27 03:24:13;;;;;;;;;11.75;11.00;;;;;20.60;46.67;101387.41;5040630;28;45357;-65
2023/09/27 03:26:39;;;;;;;;;10.25;9.75;;;;;20.58;46.43;101385.75;5040930;28;45293;-65
2023/09/27 03:29:04;;;;;;;;;10.25;10.25;;;;;20.56;46.45;101382.28;5040302;28;45261;-66
2023/09/27 03:31:30;;;;;;;;;10.00;9.75;;;;;20.55;46.89;101375.22;5040336;28;45486;-66
2023/09/27 03:33:55;;;;;;;;;11.50;10.00;;;;;20.50;47.03;101372.75;5040599;28;45251;-65
2023/09/27 03:36:21;;;;;;;;;13.25;11.00;;;;;20.48;46.96;101369.28;5022670;28;45342;-65
2023/09/27 03:38:46;;;;;;;;;11.50;10.25;;;;;20.46;46.55;101364.03;5040163;28;51136;-65
2023/09/27 03:41:11;;;;;;;;;13.75;12.00;;;;;20.44;46.85;101362.38;5039694;28;58966;-66
2023/09/27 03:43:38;;;;;;;;;13.25;9.75;;;;;20.40;46.51;101356.31;5040376;28;45224;-65
2023/09/27 03:46:03;;;;;;;;;11.00;10.00;;;;;20.42;46.91;101356.22;5040057;28;45222;-65
2023/09/27 03:48:29;;;;;;;;;14.00;12.00;;;;;20.38;46.56;101344.81;5022346;28;45473;-65
2023/09/27 03:50:55;;;;;;;;;12.25;11.00;;;;;20.37;46.96;101351.09;5040185;28;46098;-65
2023/09/27 03:53:20;;;;;;;;;9.25;9.25;;;;;20.33;47.10;101344.16;5035567;28;45298;-65
2023/09/27 03:55:45;;;;;;;;;11.00;10.75;;;;;20.27;46.60;101344.44;5020171;28;45657;-65
2023/09/27 03:58:11;;;;;;;;;13.00;9.25;;;;;20.26;47.09;101342.72;5025110;28;45282;-65
2023/09/27 04:00:36;;;;;;;;;13.00;11.25;;;;;20.22;47.44;101335.78;5039361;28;61253;-65
2023/09/27 04:03:01;;;;;;;;;14.25;13.50;;;;;20.21;47.05;101345.56;5020564;28;45274;-65
2023/09/27 04:05:27;;;;;;;;;10.50;10.00;;;;;20.22;47.21;101351.78;5014932;28;45443;-65
2023/09/27 04:07:52;;;;;;;;;11.50;10.75;;;;;20.19;46.65;101352.81;5040026;28;45285;-65
2023/09/27 04:10:19;;;;;;;;;12.25;11.00;;;;;20.20;46.72;101342.97;5039838;28;45501;-65
2023/09/27 04:12:45;;;;;;;;;11.00;11.00;;;;;20.18;47.27;101351.06;5039925;28;45244;-65
2023/09/27 04:15:10;;;;;;;;;13.00;12.00;;;;;20.16;46.91;101352.94;5039787;28;45310;-65
2023/09/27 04:17:37;;;;;;;;;15.50;14.25;;;;;20.16;46.80;101342.25;5039766;28;45389;-65
2023/09/27 04:20:16;;;;;;;;;12.75;12.25;;;;;20.13;47.16;101339.75;5039836;28;46256;-65
2023/09/27 04:22:45;;;;;;;;;17.75;14.50;;;;;20.13;47.31;101345.94;5039818;28;45393;-65
2023/09/27 04:25:15;;;;;;;;;10.75;10.25;;;;;20.11;47.40;101339.81;5039564;28;45334;-65
2023/09/27 04:27:46;;;;;;;;;16.50;13.00;;;;;20.10;47.33;101342.53;5021766;28;45549;-65
2023/09/27 04:30:18;;;;;;;;;15.75;14.00;;;;;20.09;46.84;101335.47;5039129;28;47087;-65
2023/09/27 04:32:47;;;;;;;;;12.50;12.50;;;;;20.07;47.21;101326.66;5021877;28;45440;-65
2023/09/27 04:35:13;;;;;;;;;11.50;10.00;;;;;20.04;47.13;101335.69;5039418;28;45695;-65
2023/09/27 04:37:40;;;;;;;;;10.75;10.25;;;;;20.03;47.02;101335.75;5039676;28;45431;-65
2023/09/27 04:40:11;;;;;;;;;13.50;11.00;;;;;20.00;47.33;101334.09;5021262;28;47161;-65
2023/09/27 04:42:37;;;;;;;;;15.50;13.00;;;;;19.96;47.30;101332.47;5021608;28;45428;-65
2023/09/27 04:45:03;;;;;;;;;13.75;11.25;;;;;19.94;46.88;101327.22;5021324;28;45312;-65
2023/09/27 04:47:28;;;;;;;;;11.25;9.75;;;;;19.97;47.53;101334.22;5039616;28;45568;-65
2023/09/27 04:49:54;;;;;;;;;11.75;11.00;;;;;19.90;47.40;101322.97;5039277;28;45210;-65
2023/09/27 04:52:20;;;;;;;;;13.25;12.00;;;;;19.90;47.75;101325.63;5039430;28;45421;-65
2023/09/27 04:54:46;;;;;;;;;15.75;11.50;;;;;19.91;47.48;101332.69;5023197;28;45472;-65
2023/09/27 04:57:12;;;;;;;;;10.00;9.00;;;;;19.90;47.10;101340.75;5018981;28;45238;-65
2023/09/27 04:59:37;;;;;;;;;12.50;11.50;;;;;19.88;47.34;101335.47;5033782;28;46286;-65
2023/09/27 05:02:03;;;;;;;;;12.50;10.00;;;;;19.85;47.85;101332.97;5042802;28;45330;-65
2023/09/27 05:04:28;;;;;;;;;14.00;11.00;;;;;19.85;47.71;101332.06;5042803;28;45333;-65
2023/09/27 05:06:54;;;;;;;;;14.00;12.75;;;;;19.80;47.65;101337.59;5042720;28;45467;-65
2023/09/27 05:09:19;;;;;;;;;13.75;10.75;;;;;19.79;47.27;101330.53;5042445;28;45253;-65
2023/09/27 05:11:46;;;;;;;;;13.25;11.75;;;;;19.76;47.26;101323.53;5042860;28;45214;-67
2023/09/27 05:14:12;;;;;;;;;13.75;11.00;;;;;19.76;47.66;101331.53;5042418;28;45187;-63
2023/09/27 05:16:38;;;;;;;;;13.00;12.00;;;;;19.72;47.70;101324.59;5042500;28;45424;-64
2023/09/27 05:19:03;;;;;;;;;14.00;14.00;;;;;19.71;47.24;101325.53;5042250;28;46358;-64
2023/09/27 05:21:28;;;;;;;;;14.25;13.25;;;;;19.62;47.49;101315.25;5042497;28;45267;-64
2023/09/27 05:23:54;;;;;;;;;11.25;11.00;;;;;19.63;47.66;101328.53;5042585;28;45227;-64
2023/09/27 05:26:19;;;;;;;;;11.00;11.00;;;;;19.59;47.50;101326.91;5042294;28;45362;-64
2023/09/27 05:28:44;;;;;;;;;13.00;9.00;;;;;19.56;47.29;101324.41;5042126;28;47121;-64
2023/09/27 05:31:10;;;;;;;;;13.25;12.25;;;;;19.55;47.81;101327.13;5042201;28;45348;-67
2023/09/27 05:33:35;;;;;;;;;12.50;9.50;;;;;19.49;47.98;101321.09;5023937;28;45718;-67
2023/09/27 05:36:02;;;;;;;;;12.00;11.25;;;;;19.46;47.49;101321.25;5042420;28;45463;-67
2023/09/27 05:38:27;;;;;;;;;10.50;10.00;;;;;19.46;47.93;101331.06;5042058;28;45302;-67
2023/09/27 05:40:52;;;;;;;;;10.75;10.25;;;;;19.43;48.02;101342.72;5042036;28;45335;-67
2023/09/27 05:43:18;;;;;;;;;9.25;9.00;;;;;19.40;48.16;101334.81;5042120;28;45268;-67
2023/09/27 05:45:43;;;;;;;;;10.25;9.50;;;;;19.39;47.79;101335.75;5042091;28;45447;-68
2023/09/27 05:48:08;;;;;;;;;9.25;8.00;;;;;19.38;47.96;101333.16;5041864;28;46018;-71
2023/09/27 05:50:34;;;;;;;;;10.25;8.75;;;;;19.36;47.77;101340.34;5041766;28;55970;-69
2023/09/27 05:53:00;;;;;;;;;10.75;8.75;;;;;19.35;48.23;101347.47;5040330;28;45373;-64
2023/09/27 05:55:26;;;;;;;;;13.50;10.25;;;;;19.32;48.14;101345.81;5035939;28;45459;-65
2023/09/27 05:57:53;;;;;;;;;10.75;9.75;;;;;19.30;47.72;101346.81;5035043;28;46228;-68
2023/09/27 06:00:26;;;;;;;;;9.75;9.00;;;;;19.31;47.84;101343.22;5034938;28;45315;-68
2023/09/27 06:02:52;;;;;;;;;14.25;9.00;;;;;19.30;47.86;101344.13;5030597;28;45476;-67
2023/09/27 06:05:18;;;;;;;;;10.50;10.00;;;;;19.32;47.82;101350.28;5039630;28;45523;-65
2023/09/27 06:07:43;;;;;;;;;8.25;8.25;;;;;19.33;47.92;101359.97;5033558;28;45551;-65
2023/09/27 06:10:09;;;;;;;;;11.25;8.75;;;;;19.29;48.35;101355.72;5041112;28;45270;-66
2023/09/27 06:12:34;;;;;;;;;11.75;11.25;;;;;19.28;48.46;101359.31;5036916;28;45245;-62
2023/09/27 06:14:59;;;;;;;;;12.00;10.50;;;;;19.24;48.44;101358.56;5041188;28;45408;-64
2023/09/27 06:17:25;;;;;;;;;12.50;10.75;;;;;19.22;48.56;101357.78;5039983;28;47630;-64
2023/09/27 06:19:50;;;;;;;;;9.75;9.75;;;;;19.19;48.28;101357.03;5041452;28;45363;-62
2023/09/27 06:22:16;;;;;;;;;10.50;9.00;;;;;19.17;48.59;101365.09;5041541;28;45380;-67
2023/09/27 06:24:42;;;;;;;;;13.50;11.75;;;;;19.16;48.83;101371.34;5041278;28;45342;-66
2023/09/27 06:27:08;;;;;;;;;12.25;10.25;;;;;19.14;48.05;101374.06;5040833;28;45575;-65
2023/09/27 06:29:33;;;;;;;;;15.50;13.50;;;;;19.14;48.78;101373.19;5037536;28;45409;-77
2023/09/27 06:31:59;;;;;;;;;14.25;12.00;;;;;19.11;48.91;101368.00;5041349;28;45368;-76
2023/09/27 06:34:26;;;;;;;;;14.00;11.50;;;;;19.13;48.44;101367.00;5041136;28;45309;-74
2023/09/27 06:36:54;;;;;;;;;12.00;9.75;;;;;19.15;48.26;101359.81;5040256;28;45793;-75
2023/09/27 06:39:23;;;;;;;;;13.50;11.00;;;;;19.18;48.78;101364.13;5034420;28;45401;-77
2023/09/27 06:41:49;;;;;;;;;12.50;11.00;;;;;19.19;48.42;101376.53;5041022;28;45378;-77
2023/09/27 06:44:15;;;;;;;;;12.00;11.25;;;;;19.21;48.84;101381.81;5040777;28;45230;-76
2023/09/27 06:46:40;;;;;;;;;16.75;12.50;;;;;19.20;48.90;101394.25;5040752;28;45230;-76
2023/09/27 06:49:05;;;;;;;;;15.00;11.75;;;;;19.19;48.72;101387.19;5040915;28;45455;-75
2023/09/27 06:51:31;;;;;;;;;16.50;16.00;;;;;19.17;48.79;101373.94;5040054;28;45225;-75
2023/09/27 06:53:57;;;;;;;;;11.50;10.25;;;;;19.22;49.25;101371.09;5032886;28;50545;-75
2023/09/27 06:56:23;;;;;;;;;14.00;11.25;;;;;19.25;49.32;101372.78;5030891;28;45522;-74
2023/09/27 06:58:49;;;;;;;;;13.00;12.75;;;;;19.27;49.19;101385.09;5037807;28;45357;-76
2023/09/27 07:01:16;;;;;;;;;17.25;13.25;;;;;19.31;49.06;101381.38;5030280;28;45465;-77
2023/09/27 07:03:41;;;;;;;;;13.75;13.00;;;;;19.35;48.93;101387.44;5019248;28;45354;-76
2023/09/27 07:06:07;;;;;;;;;16.75;16.00;;;;;19.32;48.74;101371.59;5030003;28;45391;-63
2023/09/27 07:08:33;;;;;;;;;13.75;13.25;;;;;19.38;49.14;101367.81;5028493;28;45403;-63
2023/09/27 07:11:05;;;;;;;;;18.25;16.75;;;;;19.42;48.89;101375.63;5040680;28;45387;-65
2023/09/27 07:13:30;;;;;;;;;14.50;12.50;;;;;19.46;49.29;101363.88;5040254;28;45678;-65
2023/09/27 07:15:56;;;;;;;;;16.25;12.50;;;;;19.45;49.37;101364.81;5040188;28;46367;-65
2023/09/27 07:18:22;;;;;;;;;13.75;13.00;;;;;19.49;48.82;101371.75;5039800;28;52328;-65
2023/09/27 07:20:50;;;;;;;;;13.75;13.75;;;;;19.49;48.98;101369.06;5040225;28;45314;-65
2023/09/27 07:23:15;;;;;;;;;16.00;13.75;;;;;19.52;49.06;101364.56;5040113;28;45586;-65
2023/09/27 07:25:44;;;;;;;;;16.00;11.75;;;;;19.61;49.41;101377.53;5039939;28;45320;-65
2023/09/27 07:28:10;;;;;;;;;17.75;15.25;;;;;19.61;49.20;101377.53;5039874;28;45408;-65
2023/09/27 07:30:37;;;;;;;;;14.00;13.25;;;;;19.67;49.66;101398.56;5026920;28;45381;-65
2023/09/27 07:33:09;;;;;;;;;14.25;11.75;;;;;19.69;49.46;101388.72;5038947;28;45450;-65
2023/09/27 07:35:38;;;;;;;;;15.75;14.00;;;;;19.72;49.21;101395.72;5034739;28;46325;-65
2023/09/27 07:38:07;;;;;;;;;16.00;14.00;;;;;19.74;49.20;101383.19;5039990;28;45331;-65
2023/09/27 07:40:32;;;;;;;;;13.25;12.00;;;;;19.78;49.42;101388.31;5039701;28;45391;-65
2023/09/27 07:42:58;;;;;;;;;13.00;12.00;;;;;19.82;49.25;101386.38;5040209;28;45306;-65
2023/09/27 07:45:28;;;;;;;;;14.50;11.00;;;;;19.82;49.54;101381.03;5039562;28;45937;-65
2023/09/27 07:47:54;;;;;;;;;13.50;11.25;;;;;19.84;49.00;101373.91;5040137;28;45384;-65
2023/09/27 07:50:21;;;;;;;;;13.25;12.00;;;;;19.91;49.44;101375.38;5006282;28;45368;-65
2023/09/27 07:52:47;;;;;;;;;15.50;14.75;;;;;19.95;49.44;101373.44;5022444;28;45391;-65
2023/09/27 07:55:14;;;;;;;;;10.50;9.75;;;;;20.01;49.22;101377.63;5034791;28;46242;-66
2023/09/27 07:57:43;;;;;;;;;10.75;8.75;;;;;20.05;49.51;101368.53;5039838;28;45462;-66
2023/09/27 08:00:10;;;;;;;;;10.50;10.50;;;;;20.10;49.11;101375.44;5039880;28;45434;-66
2023/09/27 08:02:36;;;;;;;;;16.00;12.00;;;;;20.12;49.05;101375.34;5038969;28;45397;-66
2023/09/27 08:05:09;;;;;;;;;12.25;12.25;;;;;20.17;49.22;101368.00;5039349;28;46183;-66
2023/09/27 08:07:35;;;;;;;;;11.75;11.75;;;;;20.21;49.18;101364.25;5039391;28;45404;-66
2023/09/27 08:10:01;;;;;;;;;16.25;13.75;;;;;20.26;49.61;101364.94;5039751;28;45291;-66
2023/09/27 08:12:28;;;;;;;;;14.25;11.50;;;;;20.30;49.31;101355.84;5039441;28;45563;-66
2023/09/27 08:14:53;;;;;;;;;12.75;11.25;;;;;20.37;49.21;101350.25;5039493;28;46235;-66
2023/09/27 08:17:18;;;;;;;;;11.25;11.25;;;;;20.40;49.47;101342.97;5039044;28;53746;-66
2023/09/27 08:19:44;;;;;;;;;10.50;10.25;;;;;20.48;49.53;101345.28;5039991;28;45321;-66
2023/09/27 08:22:09;;;;;;;;;9.75;9.75;;;;;20.45;49.21;101334.72;5039624;28;45139;-66
2023/09/27 08:24:35;;;;;;;;;10.00;8.25;;;;;20.58;49.64;101348.38;5039457;28;45297;-66
2023/09/27 08:27:01;;;;;;;;;11.75;11.75;;;;;20.63;49.36;101347.22;5039202;28;45435;-66
2023/09/27 08:29:27;;;;;;;;;16.25;12.50;;;;;20.68;49.53;101338.13;5039203;28;45442;-66
2023/09/27 08:31:52;;;;;;;;;12.00;10.00;;;;;20.76;49.54;101344.84;5039337;28;45301;-66
2023/09/27 08:34:18;;;;;;;;;12.50;12.00;;;;;20.83;49.43;101339.22;5016685;28;47955;-66
2023/09/27 08:36:43;;;;;;;;;16.75;15.25;;;;;20.87;49.58;101330.16;5022455;28;45329;-66
2023/09/27 08:39:09;;;;;;;;;16.75;13.75;;;;;20.96;49.48;101329.69;5034679;28;45380;-66
2023/09/27 08:41:38;;;;;;;;;16.25;14.50;;;;;21.03;49.88;101332.91;5042704;28;45254;-66
2023/09/27 08:44:04;;;;;;;;;15.50;14.00;;;;;21.11;49.89;101328.94;5035066;28;45193;-66
2023/09/27 08:46:34;;;;;;;;;16.75;13.50;;;;;21.20;49.61;101324.09;5042666;28;45249;-66
2023/09/27 08:49:01;;;;;;;;;14.75;13.25;;;;;21.25;49.67;101314.88;5042981;28;45184;-66
2023/09/27 08:51:29;;;;;;;;;17.25;13.75;;;;;21.35;49.13;101317.13;5033662;28;45501;-66
2023/09/27 08:53:55;;;;;;;;;15.50;13.75;;;;;21.41;49.37;101312.31;5030210;28;46682;-66
2023/09/27 08:56:23;;;;;;;;;16.50;14.25;;;;;21.51;49.64;101311.81;5037358;28;45479;-66
2023/09/27 08:58:48;;;;;;;;;13.75;10.50;;;;;21.56;49.09;101293.81;5041748;28;45333;-66
2023/09/27 09:01:14;;;;;;;;;11.25;9.00;;;;;21.64;49.49;101291.56;5023584;28;45910;-66
2023/09/27 09:03:41;;;;;;;;;5.75;4.00;;;;;21.75;49.41;101296.38;5030070;28;45512;-66
2023/09/27 09:06:12;;;;;;;;;9.75;8.00;;;;;21.85;49.70;101296.75;5040338;28;45373;-66
2023/09/27 09:08:41;;;;;;;;;10.00;9.00;;;;;21.92;49.41;101280.28;5041407;28;45371;-67
2023/09/27 09:11:11;;;;;;;;;8.50;8.50;;;;;22.06;49.24;101282.22;5041214;28;45349;-66
2023/09/27 09:13:57;;;;;;;;;10.25;8.50;;;;;22.20;49.50;101276.13;5023634;28;45518;-66
2023/09/27 09:16:23;;;;;;;;;7.75;7.25;;;;;22.31;49.56;101277.34;5041384;28;45474;-66
2023/09/27 09:18:51;;;;;;;;;12.75;10.00;;;;;22.43;49.36;101262.44;5041387;28;45352;-66
2023/09/27 09:21:19;;;;;;;;;11.25;9.00;;;;;22.54;49.31;101273.41;5023297;28;45598;-66
2023/09/27 09:23:48;;;;;;;;;9.25;9.25;;;;;22.65;49.76;101273.66;5040668;28;46014;-66
2023/09/27 09:26:27;;;;;;;;;9.50;7.00;;;;;22.76;49.37;101272.19;5041123;28;45508;-66
2023/09/27 09:28:57;;;;;;;;;9.50;9.50;;;;;22.83;49.45;101265.50;5016184;28;45460;-66
2023/09/27 09:31:27;;;;;;;;;10.00;10.00;;;;;22.89;49.09;101265.16;5034845;28;45510;-66
2023/09/27 09:34:06;;;;;;;;;9.50;9.00;;;;;22.91;49.19;101252.56;5040905;28;46393;-66
2023/09/27 09:36:33;;;;;;;;;7.00;6.25;;;;;23.01;48.99;101267.13;5040773;28;45379;-66
2023/09/27 09:39:17;;;;;;;;;11.25;9.25;;;;;23.11;49.04;101263.94;5040812;28;45312;-66
2023/09/27 09:41:47;;;;;;;;;11.50;10.00;;;;;23.17;48.98;101264.47;5040427;28;45443;-65
2023/09/27 09:44:20;;;;;;;;;8.50;8.50;;;;;23.25;48.80;101265.81;5033528;28;46171;-65
2023/09/27 09:46:47;;;;;;;;;10.00;8.25;;;;;23.31;48.98;101258.28;5020804;28;45332;-65
2023/09/27 09:49:16;;;;;;;;;8.50;8.00;;;;;23.39;49.20;101262.31;5035451;28;45502;-65
2023/09/27 09:51:48;;;;;;;;;10.00;7.75;;;;;23.47;48.52;101260.91;5040579;28;45408;-66
2023/09/27 09:54:41;;;;;;;;;10.25;9.25;;;;;23.57;48.65;101257.66;5030922;28;45515;-65
2023/09/27 09:57:07;;;;;;;;;7.00;7.00;;;;;23.64;48.46;101257.19;4984366;28;1125340;-65
2023/09/27 10:00:03;;;;;;;;;9.50;9.50;;;;;23.72;48.66;101254.00;5041589;28;45249;-66
2023/09/27 10:02:35;;;;;;;;;10.00;7.75;;;;;23.80;48.16;101246.38;5040670;28;45459;-66
2023/09/27 10:05:06;;;;;;;;;6.00;6.00;;;;;23.92;48.61;101238.53;5041348;28;45520;-66
2023/09/27 10:07:32;;;;;;;;;6.75;4.50;;;;;24.00;48.26;101223.69;5041313;28;45463;-65
2023/09/27 10:10:03;;;;;;;;;6.00;6.00;;;;;24.09;48.29;101208.81;5023409;28;45567;-65
2023/09/27 10:12:29;;;;;;;;;8.25;8.25;;;;;24.21;48.54;101206.31;5041374;28;45458;-66
2023/09/27 10:17:29;;;;;;;;;7.00;6.75;;;;;24.45;48.47;101212.78;5035011;28;45350;-65
2023/09/27 10:20:12;;;;;;;;;10.25;6.50;;;;;24.52;47.60;101189.03;5037356;28;45374;-65
2023/09/27 10:22:39;;;;;;;;;7.25;6.75;;;;;24.64;47.64;101192.72;5033261;28;45491;-65
2023/09/27 10:25:05;;;;;;;;;10.00;9.50;;;;;24.77;47.88;101195.50;5034180;28;45343;-65
2023/09/27 10:28:04;;;;;;;;;7.75;7.75;;;;;24.88;48.02;101186.72;5035440;28;45353;-65
2023/09/27 10:30:42;;;;;;;;;7.50;7.50;;;;;24.99;47.72;101185.03;5030151;28;45349;-65
2023/09/27 10:33:22;;;;;;;;;8.25;8.25;;;;;25.11;47.98;101187.84;5035489;28;45506;-65
2023/09/27 10:36:11;;;;;;;;;13.00;8.00;;;;;25.26;47.07;101184.09;5028070;28;45266;-65
2023/09/27 10:38:42;;;;;;;;;7.75;7.75;;;;;25.40;47.69;101193.91;5030341;28;46320;-65
2023/09/27 10:41:08;;;;;;;;;9.00;7.00;;;;;25.53;47.88;101190.38;5035859;28;45242;-65
2023/09/27 10:43:36;;;;;;;;;8.25;7.50;;;;;25.71;47.17;101189.06;5027131;28;45235;-65
2023/09/27 10:46:04;;;;;;;;;6.00;6.00;;;;;25.86;47.48;101186.22;5034931;28;45675;-65
2023/09/27 10:48:31;;;;;;;;;7.33;7.00;;;;;26.05;46.97;101196.53;5035260;28;45431;-66
2023/09/27 10:50:56;;;;;;;;;7.50;7.25;;;;;26.23;47.46;101197.06;5034730;28;45527;-66
2023/09/27 10:53:25;;;;;;;;;9.00;7.75;;;;;26.40;47.22;101175.13;5008059;28;45467;-66
2023/09/27 10:55:50;;;;;;;;;5.75;5.00;;;;;26.59;46.91;101180.00;5014097;28;46195;-66
2023/09/27 10:58:17;;;;;;;;;7.75;6.75;;;;;26.76;46.47;101169.81;5013454;28;45309;-66
2023/09/27 11:01:09;;;;;;;;;9.00;9.00;;;;;27.07;46.81;101180.94;4995228;28;45377;-66
2023/09/27 11:03:35;;;;;;;;;10.00;9.75;;;;;27.29;46.83;101184.66;5006713;28;45187;-66
2023/09/27 11:06:08;;;;;;;;;8.75;6.75;;;;;27.51;46.26;101187.41;5001214;28;46341;-66
2023/09/27 11:08:33;;;;;;;;;10.00;8.00;;;;;27.71;46.56;101183.13;5001025;28;45583;-66
2023/09/27 11:10:59;;;;;;;;;7.25;7.25;;;;;27.90;46.01;101182.50;5019608;28;45376;-66
2023/09/27 11:13:25;;;;;;;;;7.00;7.00;;;;;28.12;46.42;101185.31;5020892;28;45310;-66
2023/09/27 11:15:50;;;;;;;;;5.00;5.00;;;;;28.29;46.31;101182.09;5020039;28;46383;-66
2023/09/27 11:18:16;;;;;;;;;5.00;5.00;;;;;28.43;46.04;101178.25;5020579;28;45362;-66